Time;durP1;ratioP1;P1;durP2;ratioP2;P2;SDS_P1;SDS_P2;PMS_P1;PMS_P2;Temp;Humidity;BMP_temperature;BMP_pressure;BME280_temperature;BME280_humidity;BME280_pressure;Samples;Min_cycle;Max_cycle;Signal;HPM_P1;HPM_P2
2023/12/20 00:02:10;;;;;;;10.05;2.28;;;6.40;99.90;;;;;;5112289;28;20307;-75
2023/12/20 00:04:36;;;;;;;13.63;2.00;;;6.40;99.90;;;;;;5129174;27;20108;-75
2023/12/20 00:07:02;;;;;;;10.95;1.63;;;6.40;99.90;;;;;;5113911;27;20055;-75
2023/12/20 00:09:27;;;;;;;11.23;1.92;;;6.40;99.90;;;;;;5111435;28;20403;-75
2023/12/20 00:11:53;;;;;;;13.23;1.70;;;6.30;99.90;;;;;;5111549;28;20518;-75
2023/12/20 00:14:18;;;;;;;11.38;1.85;;;6.30;99.90;;;;;;5110748;28;20122;-75
2023/12/20 00:16:44;;;;;;;12.02;1.92;;;6.20;99.90;;;;;;5112019;28;20509;-75
2023/12/20 00:19:09;;;;;;;10.98;1.70;;;6.30;99.90;;;;;;5094964;28;20039;-75
2023/12/20 00:21:35;;;;;;;10.90;1.83;;;6.30;99.90;;;;;;5112391;28;20032;-75
2023/12/20 00:24:01;;;;;;;8.55;1.80;;;6.40;99.90;;;;;;5114129;27;20036;-74
2023/12/20 00:26:28;;;;;;;9.95;1.60;;;6.30;99.90;;;;;;5115280;27;20046;-75
2023/12/20 00:28:53;;;;;;;13.60;2.38;;;6.30;99.90;;;;;;5115768;28;20126;-75
2023/12/20 00:31:19;;;;;;;15.82;1.70;;;6.40;99.90;;;;;;5115217;27;20122;-75
2023/12/20 00:33:46;;;;;;;7.93;1.48;;;6.30;99.90;;;;;;5147739;27;20122;-75
2023/12/20 00:36:12;;;;;;;9.38;1.52;;;6.50;99.90;;;;;;5114797;27;20054;-75
2023/12/20 00:38:38;;;;;;;10.70;2.05;;;6.40;99.90;;;;;;5098562;28;20118;-75
2023/12/20 00:41:04;;;;;;;9.50;1.80;;;6.30;99.90;;;;;;5113283;28;20036;-75
2023/12/20 00:43:29;;;;;;;7.78;1.45;;;6.30;99.90;;;;;;5113964;27;20043;-75
2023/12/20 00:45:55;;;;;;;12.05;1.90;;;6.40;99.90;;;;;;5115535;28;20036;-75
2023/12/20 00:48:21;;;;;;;13.43;1.63;;;6.30;99.90;;;;;;5098399;28;20089;-75
2023/12/20 00:50:47;;;;;;;10.35;1.55;;;6.30;99.90;;;;;;5131110;27;20118;-75
2023/12/20 00:53:12;;;;;;;12.20;2.60;;;6.40;99.90;;;;;;5097129;28;20047;-75
2023/12/20 00:55:38;;;;;;;13.68;1.58;;;6.40;99.90;;;;;;5114594;28;20066;-75
2023/12/20 00:58:04;;;;;;;15.40;1.80;;;6.40;99.90;;;;;;5098158;28;20380;-75
2023/12/20 01:00:29;;;;;;;9.85;1.70;;;6.50;99.90;;;;;;5098107;28;20089;-75
2023/12/20 01:02:55;;;;;;;12.40;1.60;;;6.50;99.90;;;;;;5113271;27;20122;-75
2023/12/20 01:05:23;;;;;;;11.57;1.70;;;6.50;99.90;;;;;;5114344;28;20042;-75
2023/12/20 01:07:49;;;;;;;10.07;1.80;;;6.40;99.90;;;;;;5098048;28;20118;-75
2023/12/20 01:10:15;;;;;;;8.70;1.77;;;6.40;99.90;;;;;;5114457;27;20063;-75
2023/12/20 01:12:40;;;;;;;14.30;2.05;;;6.40;99.90;;;;;;5148606;27;20056;-75
2023/12/20 01:15:06;;;;;;;8.57;1.67;;;6.50;99.90;;;;;;5113561;28;20058;-74
2023/12/20 01:17:32;;;;;;;14.32;2.17;;;6.50;99.90;;;;;;5128463;27;20511;-75
2023/12/20 01:19:58;;;;;;;11.77;1.92;;;6.50;99.90;;;;;;5094419;28;20035;-75
2023/12/20 01:22:23;;;;;;;10.57;1.85;;;6.50;99.90;;;;;;5126901;27;20035;-75
2023/12/20 01:24:49;;;;;;;11.00;1.52;;;6.60;99.90;;;;;;5131140;27;20044;-75
2023/12/20 01:27:15;;;;;;;7.57;1.35;;;6.60;99.90;;;;;;5097066;28;20040;-75
2023/12/20 01:29:40;;;;;;;8.75;1.83;;;6.60;99.90;;;;;;5114881;28;20432;-75
2023/12/20 01:32:06;;;;;;;10.93;2.08;;;6.60;99.90;;;;;;5098683;28;20031;-75
2023/12/20 01:34:32;;;;;;;13.55;1.83;;;6.60;99.90;;;;;;5129739;27;20103;-75
2023/12/20 01:36:57;;;;;;;7.80;1.38;;;6.60;99.90;;;;;;5147485;27;20127;-75
2023/12/20 01:39:23;;;;;;;11.13;2.10;;;6.50;99.90;;;;;;5097449;28;20130;-75
2023/12/20 01:41:49;;;;;;;8.85;1.45;;;6.60;99.90;;;;;;5097316;28;20040;-74
2023/12/20 01:44:14;;;;;;;8.93;1.88;;;6.50;99.90;;;;;;5130913;27;20035;-75
2023/12/20 01:46:40;;;;;;;13.65;1.90;;;6.60;99.90;;;;;;5129905;27;20084;-75
2023/12/20 01:49:06;;;;;;;13.07;1.98;;;6.50;99.90;;;;;;5114513;28;20053;-75
2023/12/20 01:51:33;;;;;;;9.50;2.63;;;6.50;99.90;;;;;;5115594;27;20043;-75
2023/12/20 01:54:00;;;;;;;8.20;1.63;;;6.50;99.90;;;;;;5131394;27;20036;-75
2023/12/20 01:56:29;;;;;;;13.35;2.78;;;6.40;99.90;;;;;;5147641;27;20116;-75
2023/12/20 01:58:56;;;;;;;12.27;1.70;;;6.50;99.90;;;;;;5096929;28;20052;-75
2023/12/20 02:01:22;;;;;;;10.90;2.20;;;6.40;99.90;;;;;;5096308;28;20037;-75
2023/12/20 02:03:48;;;;;;;13.60;2.25;;;6.40;99.90;;;;;;5130378;27;20122;-75
2023/12/20 02:06:14;;;;;;;13.18;2.08;;;6.40;99.90;;;;;;5095908;28;20115;-75
2023/12/20 02:08:40;;;;;;;12.00;2.10;;;6.40;99.90;;;;;;5096092;28;20040;-75
2023/12/20 02:11:06;;;;;;;12.55;3.65;;;6.40;99.90;;;;;;5147495;27;20127;-75
2023/12/20 02:13:32;;;;;;;15.95;2.30;;;6.30;99.90;;;;;;5148251;27;20043;-75
2023/12/20 02:15:57;;;;;;;16.38;2.13;;;6.20;99.90;;;;;;5129600;27;20135;-75
2023/12/20 02:18:23;;;;;;;14.93;2.47;;;6.20;99.90;;;;;;5113785;28;20445;-75
2023/12/20 02:20:49;;;;;;;17.02;2.58;;;6.20;99.90;;;;;;5095759;28;20050;-75
2023/12/20 02:23:14;;;;;;;16.90;2.85;;;6.20;99.90;;;;;;5094890;28;20119;-75
2023/12/20 02:25:40;;;;;;;12.07;2.03;;;6.40;99.90;;;;;;5112694;27;20123;-75
2023/12/20 02:28:06;;;;;;;10.60;2.00;;;6.30;99.90;;;;;;5147961;27;20067;-75
2023/12/20 02:30:32;;;;;;;10.90;1.95;;;6.40;99.90;;;;;;5126684;27;20085;-75
2023/12/20 02:33:00;;;;;;;10.35;2.08;;;6.40;99.90;;;;;;5121834;27;20480;-75
2023/12/20 02:35:26;;;;;;;11.57;1.88;;;6.40;99.90;;;;;;5130505;27;20047;-75
2023/12/20 02:37:51;;;;;;;17.58;2.05;;;6.40;99.90;;;;;;5146779;27;20047;-75
2023/12/20 02:40:17;;;;;;;15.30;2.08;;;6.40;99.90;;;;;;5112334;27;20044;-75
2023/12/20 02:42:43;;;;;;;16.15;2.53;;;6.40;99.90;;;;;;5129560;27;20043;-75
2023/12/20 02:45:09;;;;;;;16.27;2.25;;;6.40;99.90;;;;;;5129763;27;20031;-75
2023/12/20 02:47:34;;;;;;;15.15;2.80;;;6.40;99.90;;;;;;5129135;27;20039;-75
2023/12/20 02:50:00;;;;;;;10.20;2.05;;;6.40;99.90;;;;;;5110865;27;20119;-75
2023/12/20 02:52:27;;;;;;;15.93;2.47;;;6.30;99.90;;;;;;5111372;27;20491;-75
2023/12/20 02:54:53;;;;;;;14.73;2.88;;;6.30;99.90;;;;;;5112991;28;20039;-75
2023/12/20 02:57:18;;;;;;;19.33;3.25;;;6.30;99.90;;;;;;5093639;28;20168;-75
2023/12/20 02:59:44;;;;;;;18.23;3.17;;;6.40;99.90;;;;;;5093888;28;20056;-75
2023/12/20 03:02:09;;;;;;;16.80;2.80;;;6.40;99.90;;;;;;5110235;27;20035;-75
2023/12/20 03:04:35;;;;;;;14.52;2.22;;;6.40;99.90;;;;;;5095968;28;20391;-75
2023/12/20 03:07:00;;;;;;;18.40;2.85;;;6.60;99.90;;;;;;5110337;28;20131;-75
2023/12/20 03:09:26;;;;;;;15.07;2.50;;;6.50;99.90;;;;;;5094262;28;20067;-75
2023/12/20 03:11:52;;;;;;;25.48;3.92;;;6.40;99.90;;;;;;5112954;28;20039;-75
2023/12/20 03:14:17;;;;;;;21.42;2.95;;;6.50;99.90;;;;;;5094433;28;20031;-75
2023/12/20 03:16:48;;;;;;;12.57;2.42;;;6.40;99.90;;;;;;5095022;28;20039;-75
2023/12/20 03:19:15;;;;;;;15.30;3.53;;;6.50;99.90;;;;;;5128638;27;20031;-75
2023/12/20 03:21:41;;;;;;;15.77;2.92;;;6.50;99.90;;;;;;5114521;27;20039;-75
2023/12/20 03:24:07;;;;;;;17.35;2.95;;;6.50;99.90;;;;;;5112593;28;20114;-75
2023/12/20 03:26:32;;;;;;;18.55;2.88;;;6.50;99.90;;;;;;5093284;28;20067;-75
2023/12/20 03:28:58;;;;;;;11.75;2.67;;;6.40;99.90;;;;;;5093177;28;20036;-75
2023/12/20 03:31:24;;;;;;;18.13;3.50;;;6.40;99.90;;;;;;5110676;28;20043;-75
2023/12/20 03:33:50;;;;;;;16.65;2.75;;;6.50;99.90;;;;;;5095554;28;20495;-75
2023/12/20 03:36:16;;;;;;;14.93;3.03;;;6.60;99.90;;;;;;5094568;28;20430;-75
2023/12/20 03:38:42;;;;;;;15.68;2.55;;;6.60;99.90;;;;;;5109622;28;20096;-75
2023/12/20 03:41:08;;;;;;;17.67;3.47;;;6.60;99.90;;;;;;5110682;28;20036;-75
2023/12/20 03:43:33;;;;;;;18.35;2.97;;;6.60;99.90;;;;;;5112279;28;20090;-75
2023/12/20 03:45:59;;;;;;;22.08;3.13;;;6.60;99.90;;;;;;5109334;28;20031;-75
2023/12/20 03:48:25;;;;;;;17.60;2.85;;;6.70;99.90;;;;;;5094804;28;20078;-75
2023/12/20 03:50:51;;;;;;;18.42;2.67;;;6.70;99.90;;;;;;5126974;27;20507;-75
2023/12/20 03:53:17;;;;;;;22.77;3.72;;;6.60;99.90;;;;;;5119409;27;20039;-75
2023/12/20 03:55:42;;;;;;;21.17;3.05;;;6.60;99.90;;;;;;5108467;28;20119;-75
2023/12/20 03:58:08;;;;;;;21.95;4.35;;;6.50;99.90;;;;;;5113446;28;20094;-75
2023/12/20 04:00:34;;;;;;;16.75;3.75;;;6.50;99.90;;;;;;5098925;28;20048;-75
2023/12/20 04:02:59;;;;;;;16.40;3.38;;;6.50;99.90;;;;;;5131197;27;20032;-75
2023/12/20 04:05:25;;;;;;;21.27;2.92;;;6.50;99.90;;;;;;5133508;27;20031;-75
2023/12/20 04:07:50;;;;;;;19.00;2.72;;;6.50;99.90;;;;;;5131093;27;20118;-75
2023/12/20 04:10:16;;;;;;;25.23;3.10;;;6.60;99.90;;;;;;5132576;27;20511;-75
2023/12/20 04:12:42;;;;;;;19.27;3.28;;;6.60;99.90;;;;;;5130452;27;20054;-75
2023/12/20 04:15:09;;;;;;;21.60;3.25;;;6.70;99.90;;;;;;5133537;27;20043;-75
2023/12/20 04:17:36;;;;;;;20.48;3.58;;;6.70;99.90;;;;;;5130897;27;20075;-75
2023/12/20 04:20:02;;;;;;;14.77;3.22;;;6.70;99.90;;;;;;5115990;28;20035;-75
2023/12/20 04:22:27;;;;;;;15.85;3.05;;;6.80;99.90;;;;;;5097225;28;20400;-75
2023/12/20 04:24:53;;;;;;;18.75;4.03;;;6.90;99.90;;;;;;5098195;28;20035;-75
2023/12/20 04:27:18;;;;;;;19.50;2.92;;;6.90;99.90;;;;;;5096970;27;20148;-75
2023/12/20 04:29:44;;;;;;;21.65;3.22;;;6.90;99.90;;;;;;5115271;27;20046;-75
2023/12/20 04:32:10;;;;;;;15.93;2.20;;;6.90;99.90;;;;;;5097478;28;20411;-75
2023/12/20 04:34:36;;;;;;;20.02;3.78;;;6.90;99.90;;;;;;5114302;28;20047;-75
2023/12/20 04:37:02;;;;;;;22.27;3.60;;;6.90;99.90;;;;;;5115706;28;20039;-75
2023/12/20 04:39:27;;;;;;;21.10;3.03;;;6.90;99.90;;;;;;5097461;28;20411;-75
2023/12/20 04:41:53;;;;;;;15.07;2.65;;;6.90;99.90;;;;;;5097715;28;20423;-75
2023/12/20 04:44:18;;;;;;;19.70;3.75;;;7.00;99.90;;;;;;5131580;27;20036;-75
2023/12/20 04:46:44;;;;;;;18.23;2.95;;;6.90;99.90;;;;;;5115514;28;20046;-75
2023/12/20 04:49:10;;;;;;;24.90;3.50;;;6.90;99.90;;;;;;5115462;28;20028;-75
2023/12/20 04:51:36;;;;;;;22.35;3.70;;;6.90;99.90;;;;;;5113275;28;20472;-75
2023/12/20 04:54:02;;;;;;;17.55;3.20;;;6.90;99.90;;;;;;5115466;28;20031;-75
2023/12/20 04:56:28;;;;;;;21.90;3.05;;;6.90;99.90;;;;;;5149031;27;20100;-75
2023/12/20 04:58:53;;;;;;;17.95;2.92;;;6.90;99.90;;;;;;5147336;27;20487;-75
2023/12/20 05:01:19;;;;;;;20.60;3.03;;;6.90;99.90;;;;;;5131324;27;20495;-75
2023/12/20 05:03:44;;;;;;;24.77;3.92;;;6.90;99.90;;;;;;5130830;27;20476;-75
2023/12/20 05:06:10;;;;;;;19.75;3.22;;;7.00;99.90;;;;;;5114165;28;20122;-75
2023/12/20 05:08:36;;;;;;;19.85;3.70;;;7.00;99.90;;;;;;5096776;28;20451;-75
2023/12/20 05:11:03;;;;;;;18.63;3.80;;;7.00;99.90;;;;;;5114495;27;20023;-75
2023/12/20 05:13:28;;;;;;;16.13;3.58;;;7.10;99.90;;;;;;5147356;27;20040;-74
2023/12/20 05:15:54;;;;;;;20.23;3.42;;;7.10;99.90;;;;;;5096718;27;20122;-75
2023/12/20 05:18:21;;;;;;;16.08;2.83;;;7.10;99.90;;;;;;5097184;28;20040;-75
2023/12/20 05:20:47;;;;;;;18.15;3.00;;;7.30;99.90;;;;;;5130361;27;20067;-75
2023/12/20 05:23:13;;;;;;;18.30;3.70;;;7.20;99.90;;;;;;5114718;28;20074;-75
2023/12/20 05:25:39;;;;;;;20.83;2.72;;;7.20;99.90;;;;;;5129678;27;20044;-75
2023/12/20 05:28:05;;;;;;;14.10;2.47;;;7.20;99.90;;;;;;5114070;27;20075;-75
2023/12/20 05:30:30;;;;;;;20.85;3.83;;;7.10;99.90;;;;;;5095665;28;20067;-75
2023/12/20 05:32:56;;;;;;;19.40;3.40;;;7.20;99.90;;;;;;5096251;28;20161;-75
2023/12/20 05:35:23;;;;;;;18.92;2.80;;;7.10;99.90;;;;;;5146991;27;20096;-75
2023/12/20 05:37:49;;;;;;;21.08;3.80;;;7.10;99.90;;;;;;5095983;28;20122;-75
2023/12/20 05:40:14;;;;;;;22.55;3.05;;;7.20;99.90;;;;;;5097453;28;20067;-74
2023/12/20 05:42:40;;;;;;;19.02;3.70;;;7.20;99.90;;;;;;5147107;27;20460;-75
2023/12/20 05:45:06;;;;;;;9.73;2.20;;;7.20;99.90;;;;;;5097337;28;20403;-75
2023/12/20 05:47:32;;;;;;;20.20;3.38;;;7.20;99.90;;;;;;5094746;28;20119;-74
2023/12/20 05:49:57;;;;;;;20.13;2.92;;;7.30;99.90;;;;;;5114290;28;20104;-75
2023/12/20 05:52:23;;;;;;;18.95;3.20;;;7.20;99.90;;;;;;5097089;28;20040;-74
2023/12/20 05:54:48;;;;;;;25.35;4.68;;;7.30;99.90;;;;;;5144739;27;20500;-74
2023/12/20 05:57:14;;;;;;;15.60;3.78;;;7.10;99.90;;;;;;5131544;27;20126;-74
2023/12/20 05:59:40;;;;;;;20.77;2.95;;;7.30;99.90;;;;;;5129931;27;20495;-75
2023/12/20 06:02:06;;;;;;;21.40;3.97;;;7.30;99.90;;;;;;5131229;27;20039;-75
2023/12/20 06:04:32;;;;;;;16.75;3.10;;;7.30;99.90;;;;;;5112840;28;20039;-74
2023/12/20 06:06:58;;;;;;;11.88;2.67;;;7.30;99.90;;;;;;5096145;28;20123;-74
2023/12/20 06:09:23;;;;;;;28.30;4.53;;;7.30;99.90;;;;;;5095669;28;20114;-75
2023/12/20 06:11:50;;;;;;;16.55;3.38;;;7.40;99.90;;;;;;5097207;28;20036;-74
2023/12/20 06:14:16;;;;;;;12.52;3.25;;;7.40;99.90;;;;;;5130401;27;20024;-75
2023/12/20 06:16:41;;;;;;;20.42;3.80;;;7.40;99.90;;;;;;5094327;27;20036;-75
2023/12/20 06:19:07;;;;;;;17.08;2.60;;;7.40;99.90;;;;;;5128796;27;20042;-74
2023/12/20 06:21:32;;;;;;;21.77;3.53;;;7.40;99.90;;;;;;5110695;28;20036;-75
2023/12/20 06:24:01;;;;;;;13.90;2.60;;;7.40;99.90;;;;;;5113786;28;20031;-74
2023/12/20 06:26:27;;;;;;;18.95;3.40;;;7.40;99.90;;;;;;5095291;28;20541;-74
2023/12/20 06:28:52;;;;;;;20.63;3.92;;;7.50;99.90;;;;;;5112178;28;20110;-74
2023/12/20 06:31:18;;;;;;;21.80;3.42;;;7.50;99.90;;;;;;5108919;27;20036;-75
2023/12/20 06:33:44;;;;;;;17.20;3.25;;;7.60;99.90;;;;;;5127550;27;20388;-75
2023/12/20 06:36:13;;;;;;;19.00;3.67;;;7.50;99.90;;;;;;5095866;28;20046;-75
2023/12/20 06:38:39;;;;;;;18.45;2.90;;;7.50;99.90;;;;;;5146697;27;20044;-74
2023/12/20 06:41:05;;;;;;;18.00;3.35;;;7.50;99.90;;;;;;5128532;27;20042;-75
2023/12/20 06:43:32;;;;;;;27.08;4.28;;;7.40;99.90;;;;;;5129411;27;20411;-75
2023/12/20 06:45:58;;;;;;;19.95;3.65;;;7.50;99.90;;;;;;5113350;28;20088;-75
2023/12/20 06:48:23;;;;;;;19.27;3.25;;;7.50;99.90;;;;;;5095189;28;20036;-74
2023/12/20 06:50:49;;;;;;;17.92;3.10;;;7.50;99.90;;;;;;5112594;27;20027;-75
2023/12/20 06:53:15;;;;;;;18.38;2.75;;;7.40;99.90;;;;;;5093426;28;20039;-75
2023/12/20 06:55:40;;;;;;;18.98;3.60;;;7.40;99.90;;;;;;5108263;27;20084;-75
2023/12/20 06:58:06;;;;;;;21.25;3.25;;;7.40;99.90;;;;;;5143392;27;20058;-75
2023/12/20 07:00:32;;;;;;;18.55;3.80;;;7.40;99.90;;;;;;5127507;27;20051;-75
2023/12/20 07:02:58;;;;;;;22.20;3.17;;;7.40;99.90;;;;;;5126872;27;20476;-75
2023/12/20 07:05:24;;;;;;;29.00;4.43;;;7.40;99.90;;;;;;5129282;27;20415;-74
2023/12/20 07:07:50;;;;;;;21.73;4.82;;;7.40;99.90;;;;;;5146364;27;20027;-75
2023/12/20 07:10:16;;;;;;;18.92;3.30;;;7.50;99.90;;;;;;5095794;28;20127;-74
2023/12/20 07:12:41;;;;;;;23.75;3.95;;;7.50;99.90;;;;;;5118729;27;20046;-75
2023/12/20 07:15:07;;;;;;;19.95;3.35;;;7.50;99.90;;;;;;5094763;27;20419;-74
2023/12/20 07:17:33;;;;;;;17.65;3.10;;;7.50;99.90;;;;;;5102865;27;20039;-74
2023/12/20 07:20:03;;;;;;;22.67;4.25;;;7.50;99.90;;;;;;5077405;28;20044;-74
2023/12/20 07:22:33;;;;;;;19.85;3.55;;;7.60;99.90;;;;;;5083261;28;20041;-75
2023/12/20 07:24:59;;;;;;;21.55;3.63;;;7.50;99.90;;;;;;5111896;28;20503;-75
2023/12/20 07:27:25;;;;;;;20.58;3.70;;;7.50;99.90;;;;;;5112169;28;20046;-75
2023/12/20 07:29:51;;;;;;;18.30;2.90;;;7.50;99.90;;;;;;5129366;27;20377;-75
2023/12/20 07:32:16;;;;;;;22.75;3.78;;;7.50;99.90;;;;;;5117474;27;20047;-75
2023/12/20 07:34:42;;;;;;;18.23;3.80;;;7.50;99.90;;;;;;5128359;27;20044;-75
2023/12/20 07:37:10;;;;;;;18.38;4.90;;;7.60;99.90;;;;;;5107659;28;20039;-74
2023/12/20 07:39:36;;;;;;;16.17;3.08;;;7.60;99.90;;;;;;5075917;28;20040;-74
2023/12/20 07:42:01;;;;;;;19.98;3.40;;;7.60;99.90;;;;;;5090148;27;20457;-75
2023/12/20 07:44:27;;;;;;;16.05;3.15;;;7.60;99.90;;;;;;5079212;28;20526;-75
2023/12/20 07:46:52;;;;;;;19.92;2.90;;;7.60;99.90;;;;;;5113976;27;20099;-75
2023/12/20 07:49:19;;;;;;;17.55;2.90;;;7.70;99.90;;;;;;5066531;28;20111;-75
2023/12/20 07:51:45;;;;;;;12.25;2.78;;;7.70;99.90;;;;;;5074749;28;20365;-74
2023/12/20 07:54:10;;;;;;;18.50;3.30;;;7.70;99.90;;;;;;5082954;28;20066;-75
2023/12/20 07:56:36;;;;;;;22.05;3.83;;;7.70;99.90;;;;;;5076572;28;20035;-74
2023/12/20 07:59:02;;;;;;;16.40;3.40;;;7.60;99.90;;;;;;5065101;28;20826;-75
2023/12/20 08:01:27;;;;;;;14.13;3.33;;;7.70;99.90;;;;;;5081995;28;20046;-75
2023/12/20 08:03:53;;;;;;;13.10;2.95;;;7.70;99.90;;;;;;5096497;27;20177;-75
2023/12/20 08:06:18;;;;;;;19.75;4.60;;;7.80;99.90;;;;;;5115341;27;20123;-75
2023/12/20 08:08:44;;;;;;;22.20;3.78;;;7.70;99.90;;;;;;5113035;27;20545;-75
2023/12/20 08:11:10;;;;;;;19.10;3.45;;;7.70;99.90;;;;;;5116111;27;20396;-75
2023/12/20 08:13:35;;;;;;;16.15;2.53;;;7.70;99.90;;;;;;5102727;27;20039;-75
2023/12/20 08:16:02;;;;;;;14.57;3.17;;;7.70;99.90;;;;;;5139653;27;20057;-75
2023/12/20 08:18:29;;;;;;;22.65;4.07;;;7.80;99.90;;;;;;5076008;28;20055;-75
2023/12/20 08:20:54;;;;;;;18.45;3.13;;;7.80;99.90;;;;;;5121126;27;20067;-75
2023/12/20 08:23:20;;;;;;;24.48;3.60;;;7.80;99.90;;;;;;5087967;28;20171;-75
2023/12/20 08:25:46;;;;;;;20.60;3.78;;;7.80;99.90;;;;;;5076096;28;20036;-75
2023/12/20 08:28:12;;;;;;;20.35;3.85;;;7.80;99.90;;;;;;5071176;28;20175;-74
2023/12/20 08:30:38;;;;;;;22.27;3.08;;;7.90;99.90;;;;;;5081358;28;20040;-75
2023/12/20 08:33:04;;;;;;;17.40;2.67;;;7.80;99.90;;;;;;5119581;27;20123;-75
2023/12/20 08:35:30;;;;;;;20.33;3.50;;;7.90;99.90;;;;;;5112585;27;20092;-75
2023/12/20 08:37:56;;;;;;;16.75;3.15;;;7.90;99.90;;;;;;5125312;27;20052;-74
2023/12/20 08:40:22;;;;;;;11.23;2.33;;;7.80;99.90;;;;;;5127544;27;20066;-75
2023/12/20 08:42:47;;;;;;;15.73;2.90;;;7.80;99.90;;;;;;5088391;28;20089;-75
2023/12/20 08:45:13;;;;;;;15.70;2.58;;;7.80;99.90;;;;;;5119438;27;20028;-75
2023/12/20 08:47:40;;;;;;;7.25;1.77;;;7.70;99.90;;;;;;5086805;27;20081;-75
2023/12/20 08:50:07;;;;;;;11.52;1.90;;;7.70;99.90;;;;;;5083429;27;20073;-75
2023/12/20 08:52:33;;;;;;;10.40;1.80;;;7.60;99.90;;;;;;5064937;28;20092;-74
2023/12/20 08:54:58;;;;;;;15.05;2.33;;;7.60;99.90;;;;;;5109093;27;20036;-75
2023/12/20 08:57:25;;;;;;;9.45;1.48;;;7.60;99.90;;;;;;5101089;27;20042;-75
2023/12/20 08:59:50;;;;;;;13.05;2.38;;;7.50;99.90;;;;;;5064414;27;20060;-74
2023/12/20 09:02:16;;;;;;;14.05;2.63;;;7.60;99.90;;;;;;5086060;27;20039;-75
2023/12/20 09:04:42;;;;;;;12.57;2.38;;;7.60;99.90;;;;;;5112493;27;20036;-75
2023/12/20 09:07:22;;;;;;;13.77;2.90;;;7.60;99.90;;;;;;5097770;28;20113;-75
2023/12/20 09:09:47;;;;;;;17.83;4.03;;;7.70;99.90;;;;;;5137286;27;20518;-75
2023/12/20 09:12:13;;;;;;;16.13;2.80;;;7.60;99.90;;;;;;5151153;27;20075;-75
2023/12/20 09:14:38;;;;;;;17.27;3.17;;;7.60;99.90;;;;;;5131191;27;20067;-74
2023/12/20 09:17:04;;;;;;;23.00;4.20;;;7.80;99.90;;;;;;5125845;27;20181;-74
2023/12/20 09:19:30;;;;;;;17.70;3.80;;;7.80;99.90;;;;;;5095605;28;20035;-75
2023/12/20 09:21:55;;;;;;;17.50;3.30;;;7.90;99.90;;;;;;5115118;28;20126;-74
2023/12/20 09:24:21;;;;;;;11.05;2.25;;;8.00;99.90;;;;;;5096435;28;20088;-74
2023/12/20 09:26:46;;;;;;;9.45;1.75;;;7.90;99.90;;;;;;5097865;28;20035;-75
2023/12/20 09:29:15;;;;;;;10.57;1.88;;;7.50;99.90;;;;;;5097757;28;20483;-75
2023/12/20 09:31:41;;;;;;;6.25;1.35;;;7.20;99.90;;;;;;5114671;28;20066;-76
2023/12/20 09:34:07;;;;;;;9.20;1.10;;;7.00;99.90;;;;;;5091829;28;20047;-75
2023/12/20 09:36:35;;;;;;;4.78;0.93;;;6.80;99.90;;;;;;5139718;27;20041;-76
2023/12/20 09:39:01;;;;;;;4.88;1.00;;;6.70;99.90;;;;;;5111192;28;20039;-76
2023/12/20 09:41:31;;;;;;;4.30;1.38;;;6.70;99.90;;;;;;5094128;28;20028;-76
2023/12/20 09:44:02;;;;;;;7.90;1.08;;;6.70;99.90;;;;;;5077094;28;20044;-75
2023/12/20 09:46:32;;;;;;;6.82;0.90;;;6.60;99.90;;;;;;5140209;27;20036;-76
2023/12/20 09:49:00;;;;;;;4.47;0.95;;;6.60;99.90;;;;;;5097411;28;20043;-76
2023/12/20 09:51:28;;;;;;;6.57;1.10;;;6.40;99.90;;;;;;5097392;28;20047;-75
2023/12/20 09:53:55;;;;;;;6.13;0.95;;;6.50;99.90;;;;;;5093753;28;20089;-76
2023/12/20 09:56:24;;;;;;;17.20;2.17;;;6.50;99.90;;;;;;5115764;27;20042;-76
2023/12/20 09:58:50;;;;;;;4.78;0.80;;;6.50;99.90;;;;;;5127745;27;20367;-76
2023/12/20 10:01:16;;;;;;;6.10;0.93;;;6.50;99.90;;;;;;5110738;28;20044;-76
2023/12/20 10:03:42;;;;;;;9.23;1.27;;;6.50;99.90;;;;;;5110660;28;20545;-76
2023/12/20 10:06:09;;;;;;;6.00;1.13;;;6.40;99.90;;;;;;5096426;27;20066;-76
2023/12/20 10:08:34;;;;;;;7.00;1.52;;;6.60;99.90;;;;;;5113048;28;20081;-76
2023/12/20 10:11:02;;;;;;;10.25;1.10;;;6.60;99.90;;;;;;5097066;28;20107;-76
2023/12/20 10:13:28;;;;;;;7.05;1.10;;;6.50;99.90;;;;;;5096920;28;20036;-76
2023/12/20 10:15:55;;;;;;;8.77;1.10;;;6.50;99.90;;;;;;5104554;28;20040;-76
2023/12/20 10:18:21;;;;;;;9.18;1.60;;;6.50;99.90;;;;;;5130015;27;20105;-76
2023/12/20 10:20:47;;;;;;;7.78;1.08;;;6.50;99.90;;;;;;5113733;28;20081;-76
2023/12/20 10:23:14;;;;;;;9.23;1.80;;;6.50;99.90;;;;;;5096739;28;20400;-75
2023/12/20 10:25:41;;;;;;;11.27;1.85;;;6.70;99.90;;;;;;5096545;28;20042;-75
2023/12/20 10:28:18;;;;;;;9.93;1.63;;;6.70;99.90;;;;;;5112873;28;20405;-76
2023/12/20 10:30:44;;;;;;;11.35;1.35;;;6.60;99.90;;;;;;5106929;27;20039;-76
2023/12/20 10:33:10;;;;;;;10.65;1.20;;;6.50;99.90;;;;;;5141046;27;20043;-76
2023/12/20 10:35:37;;;;;;;5.80;2.08;;;6.50;99.90;;;;;;5113397;28;20043;-76
2023/12/20 10:38:05;;;;;;;8.25;1.08;;;6.50;99.90;;;;;;5112270;28;20039;-76
2023/12/20 10:40:33;;;;;;;7.95;1.00;;;6.50;99.90;;;;;;5113386;28;20083;-76
2023/12/20 10:43:01;;;;;;;8.10;1.30;;;6.50;99.90;;;;;;5113238;28;20072;-76
2023/12/20 10:45:26;;;;;;;10.25;1.33;;;6.60;99.90;;;;;;5113246;28;20039;-76
2023/12/20 10:47:52;;;;;;;9.20;1.42;;;6.50;99.90;;;;;;5090577;28;20039;-76
2023/12/20 10:50:19;;;;;;;8.90;1.52;;;6.50;99.90;;;;;;5130622;27;20472;-77
2023/12/20 10:52:47;;;;;;;7.93;1.40;;;6.60;99.90;;;;;;5092143;28;20044;-76
2023/12/20 10:55:13;;;;;;;9.85;1.25;;;6.60;99.90;;;;;;5091885;28;20036;-76
2023/12/20 10:57:39;;;;;;;11.73;1.50;;;6.60;99.90;;;;;;5109146;28;20548;-76
2023/12/20 11:00:08;;;;;;;9.05;1.35;;;6.60;99.90;;;;;;5112389;28;20503;-76
2023/12/20 11:02:39;;;;;;;7.57;1.30;;;6.60;99.90;;;;;;5095365;28;20039;-76
2023/12/20 11:05:19;;;;;;;9.63;1.23;;;6.60;99.90;;;;;;5112658;28;20074;-76
2023/12/20 11:07:54;;;;;;;6.40;1.38;;;6.80;99.90;;;;;;5091958;28;20051;-76
2023/12/20 11:10:39;;;;;;;10.27;1.40;;;6.70;99.90;;;;;;5127914;27;20039;-76
2023/12/20 11:13:16;;;;;;;10.85;1.50;;;6.80;99.90;;;;;;5095340;28;20127;-76
2023/12/20 11:15:43;;;;;;;7.30;1.50;;;6.80;99.90;;;;;;5111971;28;20051;-76
2023/12/20 11:18:09;;;;;;;13.10;1.75;;;6.90;99.90;;;;;;5111597;28;20043;-76
2023/12/20 11:20:39;;;;;;;11.63;1.92;;;6.80;99.90;;;;;;5112109;28;20051;-76
2023/12/20 11:23:06;;;;;;;8.65;1.38;;;6.80;99.90;;;;;;5095427;28;20173;-76
2023/12/20 11:25:54;;;;;;;12.27;1.63;;;6.80;99.90;;;;;;5094863;28;20099;-75
2023/12/20 11:28:25;;;;;;;11.95;1.83;;;6.90;99.90;;;;;;5112029;28;20048;-76
2023/12/20 11:30:53;;;;;;;10.10;1.80;;;6.90;99.90;;;;;;5094453;28;20042;-75
2023/12/20 11:33:26;;;;;;;8.52;1.42;;;6.90;99.90;;;;;;5112003;28;20043;-76
2023/12/20 11:35:56;;;;;;;10.75;1.45;;;6.90;99.90;;;;;;5111768;28;20035;-75
2023/12/20 11:38:22;;;;;;;9.35;1.88;;;6.90;99.90;;;;;;5112154;28;20395;-75
2023/12/20 11:40:49;;;;;;;12.23;1.40;;;6.90;99.90;;;;;;5094326;28;20039;-75
2023/12/20 11:43:54;;;;;;;8.43;1.05;;;7.00;99.90;;;;;;5091173;28;20040;-75
2023/12/20 11:46:20;;;;;;;11.05;2.22;;;7.00;99.90;;;;;;5053530;28;20048;-76
2023/12/20 11:48:47;;;;;;;12.52;1.60;;;7.00;99.90;;;;;;5124757;27;20131;-75
2023/12/20 11:51:13;;;;;;;9.93;1.45;;;7.10;99.90;;;;;;5141996;27;20088;-75
2023/12/20 11:53:40;;;;;;;12.60;1.90;;;7.00;99.90;;;;;;5095261;28;20047;-75
2023/12/20 11:56:06;;;;;;;11.48;1.60;;;7.00;99.90;;;;;;5095143;28;20051;-75
2023/12/20 11:58:33;;;;;;;10.10;1.48;;;7.10;99.90;;;;;;5112245;28;20404;-75
2023/12/20 12:00:59;;;;;;;13.07;1.48;;;7.20;99.90;;;;;;5111248;28;20054;-75
2023/12/20 12:03:25;;;;;;;11.93;2.03;;;7.30;99.90;;;;;;5089105;28;20032;-75
2023/12/20 12:05:51;;;;;;;13.38;1.67;;;7.30;99.90;;;;;;5125784;28;20121;-75
2023/12/20 12:08:17;;;;;;;9.18;1.38;;;7.40;99.90;;;;;;5098640;28;20063;-75
2023/12/20 12:10:44;;;;;;;9.32;1.38;;;7.40;99.90;;;;;;5099210;28;20035;-75
2023/12/20 12:13:11;;;;;;;10.43;1.98;;;7.40;99.90;;;;;;5108335;28;20160;-75
2023/12/20 12:15:37;;;;;;;8.80;1.80;;;7.50;99.90;;;;;;5107813;28;20086;-76
2023/12/20 12:18:03;;;;;;;8.55;1.40;;;7.50;99.90;;;;;;5117213;27;20123;-76
2023/12/20 12:20:29;;;;;;;11.70;1.60;;;7.50;99.90;;;;;;5132288;27;20031;-76
2023/12/20 12:23:06;;;;;;;11.48;1.73;;;7.40;99.90;;;;;;5100436;28;20499;-76
2023/12/20 12:25:35;;;;;;;13.68;1.60;;;7.50;99.90;;;;;;5133059;27;20131;-76
2023/12/20 12:28:01;;;;;;;10.57;1.80;;;7.50;99.90;;;;;;5132317;27;20043;-76
2023/12/20 12:30:27;;;;;;;7.43;1.45;;;7.50;99.90;;;;;;5130254;27;20028;-76
2023/12/20 12:32:54;;;;;;;9.82;1.20;;;7.50;99.90;;;;;;5095703;28;20040;-76
2023/12/20 12:35:20;;;;;;;10.88;2.00;;;7.50;99.90;;;;;;5105009;27;20118;-76
2023/12/20 12:37:46;;;;;;;10.65;1.40;;;7.50;99.90;;;;;;5114800;28;20043;-75
2023/12/20 12:40:14;;;;;;;11.52;1.77;;;7.50;99.90;;;;;;5099356;27;20111;-75
2023/12/20 12:42:41;;;;;;;12.73;1.58;;;7.50;99.90;;;;;;5151698;27;20040;-75
2023/12/20 12:45:07;;;;;;;13.27;2.40;;;7.50;99.90;;;;;;5098583;28;20036;-75